sensor_id;sensor_type;location;lat;lon;timestamp;temperature;humidity
10046;DHT22;5063;50.878;4.742;2022-07-23T00:02:00;15.20;99.90
10046;DHT22;5063;50.878;4.742;2022-07-23T00:04:26;15.20;99.90
10046;DHT22;5063;50.878;4.742;2022-07-23T00:06:51;15.10;99.90
10046;DHT22;5063;50.878;4.742;2022-07-23T00:09:17;15.10;99.90
10046;DHT22;5063;50.878;4.742;2022-07-23T00:11:43;15.10;99.90
10046;DHT22;5063;50.878;4.742;2022-07-23T00:14:09;15.10;99.90
10046;DHT22;5063;50.878;4.742;2022-07-23T00:16:34;15.00;99.90
10046;DHT22;5063;50.878;4.742;2022-07-23T00:19:00;15.00;99.90
10046;DHT22;5063;50.878;4.742;2022-07-23T00:21:29;14.90;99.90
10046;DHT22;5063;50.878;4.742;2022-07-23T00:23:55;14.90;99.90
10046;DHT22;5063;50.878;4.742;2022-07-23T00:26:20;14.80;99.90
10046;DHT22;5063;50.878;4.742;2022-07-23T00:28:46;14.80;99.90
10046;DHT22;5063;50.878;4.742;2022-07-23T00:31:12;14.80;99.90
10046;DHT22;5063;50.878;4.742;2022-07-23T00:33:38;14.80;99.90
10046;DHT22;5063;50.878;4.742;2022-07-23T00:36:04;14.80;99.90
10046;DHT22;5063;50.878;4.742;2022-07-23T00:38:30;14.80;99.90
10046;DHT22;5063;50.878;4.742;2022-07-23T00:40:55;14.80;99.90
10046;DHT22;5063;50.878;4.742;2022-07-23T00:43:21;14.80;99.90
10046;DHT22;5063;50.878;4.742;2022-07-23T00:45:47;14.80;99.90
10046;DHT22;5063;50.878;4.742;2022-07-23T00:48:13;14.80;99.90
10046;DHT22;5063;50.878;4.742;2022-07-23T00:50:39;14.80;99.90
10046;DHT22;5063;50.878;4.742;2022-07-23T00:53:05;14.80;99.90
10046;DHT22;5063;50.878;4.742;2022-07-23T00:55:31;14.70;99.90
10046;DHT22;5063;50.878;4.742;2022-07-23T00:57:57;14.70;99.90
10046;DHT22;5063;50.878;4.742;2022-07-23T01:00:23;14.70;99.90
10046;DHT22;5063;50.878;4.742;2022-07-23T01:02:49;14.70;99.90
10046;DHT22;5063;50.878;4.742;2022-07-23T01:05:16;14.70;99.90
10046;DHT22;5063;50.878;4.742;2022-07-23T01:07:43;14.70;99.90
10046;DHT22;5063;50.878;4.742;2022-07-23T01:10:09;14.70;99.90
10046;DHT22;5063;50.878;4.742;2022-07-23T01:12:54;14.70;99.90
10046;DHT22;5063;50.878;4.742;2022-07-23T01:15:19;14.60;99.90
10046;DHT22;5063;50.878;4.742;2022-07-23T01:17:45;14.60;99.90
10046;DHT22;5063;50.878;4.742;2022-07-23T01:20:11;14.50;99.90
10046;DHT22;5063;50.878;4.742;2022-07-23T01:22:36;14.50;99.90
10046;DHT22;5063;50.878;4.742;2022-07-23T01:25:02;14.50;99.90
10046;DHT22;5063;50.878;4.742;2022-07-23T01:27:28;14.50;99.90
10046;DHT22;5063;50.878;4.742;2022-07-23T01:29:54;14.40;99.90
10046;DHT22;5063;50.878;4.742;2022-07-23T01:32:20;14.40;99.90
10046;DHT22;5063;50.878;4.742;2022-07-23T01:34:46;14.40;99.90
10046;DHT22;5063;50.878;4.742;2022-07-23T01:37:11;14.40;99.90
10046;DHT22;5063;50.878;4.742;2022-07-23T01:39:37;14.30;99.90
10046;DHT22;5063;50.878;4.742;2022-07-23T01:42:03;14.30;99.90
10046;DHT22;5063;50.878;4.742;2022-07-23T01:44:29;14.20;99.90
10046;DHT22;5063;50.878;4.742;2022-07-23T01:46:55;14.20;99.90
10046;DHT22;5063;50.878;4.742;2022-07-23T01:49:22;14.10;99.90
10046;DHT22;5063;50.878;4.742;2022-07-23T01:51:48;14.10;99.90
10046;DHT22;5063;50.878;4.742;2022-07-23T01:54:31;14.10;99.90
10046;DHT22;5063;50.878;4.742;2022-07-23T01:56:57;14.00;99.90
10046;DHT22;5063;50.878;4.742;2022-07-23T01:59:23;14.10;99.90
10046;DHT22;5063;50.878;4.742;2022-07-23T02:01:49;14.10;99.90
10046;DHT22;5063;50.878;4.742;2022-07-23T02:04:19;14.10;99.90
10046;DHT22;5063;50.878;4.742;2022-07-23T02:06:46;14.10;99.90
10046;DHT22;5063;50.878;4.742;2022-07-23T02:09:12;14.10;99.90
10046;DHT22;5063;50.878;4.742;2022-07-23T02:11:38;14.10;99.90
10046;DHT22;5063;50.878;4.742;2022-07-23T02:14:04;14.00;99.90
10046;DHT22;5063;50.878;4.742;2022-07-23T02:16:30;14.10;99.90
10046;DHT22;5063;50.878;4.742;2022-07-23T02:18:55;14.10;99.90
10046;DHT22;5063;50.878;4.742;2022-07-23T02:21:21;14.00;99.90
10046;DHT22;5063;50.878;4.742;2022-07-23T02:23:47;14.00;99.90
10046;DHT22;5063;50.878;4.742;2022-07-23T02:26:13;14.00;99.90
10046;DHT22;5063;50.878;4.742;2022-07-23T02:28:39;14.00;99.90
10046;DHT22;5063;50.878;4.742;2022-07-23T02:31:05;13.90;99.90
10046;DHT22;5063;50.878;4.742;2022-07-23T02:33:33;13.90;99.90
10046;DHT22;5063;50.878;4.742;2022-07-23T02:35:59;13.90;99.90
10046;DHT22;5063;50.878;4.742;2022-07-23T02:38:26;13.80;99.90
10046;DHT22;5063;50.878;4.742;2022-07-23T02:40:51;13.80;99.90
10046;DHT22;5063;50.878;4.742;2022-07-23T02:43:17;13.80;99.90
10046;DHT22;5063;50.878;4.742;2022-07-23T02:45:43;13.80;99.90
10046;DHT22;5063;50.878;4.742;2022-07-23T02:48:09;13.80;99.90
10046;DHT22;5063;50.878;4.742;2022-07-23T02:50:38;13.80;99.90
10046;DHT22;5063;50.878;4.742;2022-07-23T02:53:03;13.80;99.90
10046;DHT22;5063;50.878;4.742;2022-07-23T02:55:29;13.80;99.90
10046;DHT22;5063;50.878;4.742;2022-07-23T02:57:56;13.80;99.90
10046;DHT22;5063;50.878;4.742;2022-07-23T03:00:22;13.80;99.90
10046;DHT22;5063;50.878;4.742;2022-07-23T03:02:48;13.80;99.90
10046;DHT22;5063;50.878;4.742;2022-07-23T03:05:14;13.80;99.90
10046;DHT22;5063;50.878;4.742;2022-07-23T03:07:40;13.80;99.90
10046;DHT22;5063;50.878;4.742;2022-07-23T03:10:05;13.80;99.90
10046;DHT22;5063;50.878;4.742;2022-07-23T03:12:31;13.70;99.90
10046;DHT22;5063;50.878;4.742;2022-07-23T03:14:57;13.70;99.90
10046;DHT22;5063;50.878;4.742;2022-07-23T03:17:23;13.70;99.90
10046;DHT22;5063;50.878;4.742;2022-07-23T03:19:49;13.70;99.90
10046;DHT22;5063;50.878;4.742;2022-07-23T03:22:15;13.60;99.90
10046;DHT22;5063;50.878;4.742;2022-07-23T03:24:41;13.60;99.90
10046;DHT22;5063;50.878;4.742;2022-07-23T03:27:27;13.50;99.90
10046;DHT22;5063;50.878;4.742;2022-07-23T03:29:54;13.40;99.90
10046;DHT22;5063;50.878;4.742;2022-07-23T03:32:21;13.50;99.90
10046;DHT22;5063;50.878;4.742;2022-07-23T03:34:47;13.50;99.90
10046;DHT22;5063;50.878;4.742;2022-07-23T03:37:13;13.60;99.90
10046;DHT22;5063;50.878;4.742;2022-07-23T03:39:39;13.60;99.90
10046;DHT22;5063;50.878;4.742;2022-07-23T03:42:06;13.60;99.90
10046;DHT22;5063;50.878;4.742;2022-07-23T03:44:32;13.60;99.90
10046;DHT22;5063;50.878;4.742;2022-07-23T03:46:57;13.60;99.90
10046;DHT22;5063;50.878;4.742;2022-07-23T03:49:23;13.60;99.90
10046;DHT22;5063;50.878;4.742;2022-07-23T03:51:49;13.60;99.90
10046;DHT22;5063;50.878;4.742;2022-07-23T03:54:15;13.60;99.90
10046;DHT22;5063;50.878;4.742;2022-07-23T03:56:41;13.60;99.90
10046;DHT22;5063;50.878;4.742;2022-07-23T03:59:08;13.60;99.90
10046;DHT22;5063;50.878;4.742;2022-07-23T04:01:34;13.50;99.90
10046;DHT22;5063;50.878;4.742;2022-07-23T04:04:01;13.50;99.90
10046;DHT22;5063;50.878;4.742;2022-07-23T04:06:27;13.70;99.90
10046;DHT22;5063;50.878;4.742;2022-07-23T04:08:53;13.50;99.90
10046;DHT22;5063;50.878;4.742;2022-07-23T04:11:19;13.50;99.90
10046;DHT22;5063;50.878;4.742;2022-07-23T04:13:44;13.60;99.90
10046;DHT22;5063;50.878;4.742;2022-07-23T04:16:10;13.60;99.90
10046;DHT22;5063;50.878;4.742;2022-07-23T04:18:36;13.60;99.90
10046;DHT22;5063;50.878;4.742;2022-07-23T04:21:02;13.70;99.90
10046;DHT22;5063;50.878;4.742;2022-07-23T04:23:27;13.70;99.90
10046;DHT22;5063;50.878;4.742;2022-07-23T04:25:53;13.80;99.90
10046;DHT22;5063;50.878;4.742;2022-07-23T04:28:19;14.00;99.90
10046;DHT22;5063;50.878;4.742;2022-07-23T04:30:45;13.90;99.90
10046;DHT22;5063;50.878;4.742;2022-07-23T04:33:10;14.00;99.90
10046;DHT22;5063;50.878;4.742;2022-07-23T04:35:37;14.00;99.90
10046;DHT22;5063;50.878;4.742;2022-07-23T04:38:03;14.10;99.90
10046;DHT22;5063;50.878;4.742;2022-07-23T04:40:29;14.20;99.90
10046;DHT22;5063;50.878;4.742;2022-07-23T04:42:55;14.30;99.90
10046;DHT22;5063;50.878;4.742;2022-07-23T04:45:22;14.30;99.90
10046;DHT22;5063;50.878;4.742;2022-07-23T04:47:49;14.40;99.90
10046;DHT22;5063;50.878;4.742;2022-07-23T04:50:15;14.50;99.90
10046;DHT22;5063;50.878;4.742;2022-07-23T04:52:44;14.60;99.90
10046;DHT22;5063;50.878;4.742;2022-07-23T04:55:10;14.60;99.90
10046;DHT22;5063;50.878;4.742;2022-07-23T04:57:36;14.90;99.90
10046;DHT22;5063;50.878;4.742;2022-07-23T05:00:03;14.90;99.90
10046;DHT22;5063;50.878;4.742;2022-07-23T05:02:28;15.00;99.90
10046;DHT22;5063;50.878;4.742;2022-07-23T05:04:54;15.40;99.90
10046;DHT22;5063;50.878;4.742;2022-07-23T05:07:20;16.30;99.90
10046;DHT22;5063;50.878;4.742;2022-07-23T05:09:46;17.20;99.90
10046;DHT22;5063;50.878;4.742;2022-07-23T05:12:12;18.00;99.90
10046;DHT22;5063;50.878;4.742;2022-07-23T05:14:37;18.90;99.90
10046;DHT22;5063;50.878;4.742;2022-07-23T05:17:03;19.60;99.90
10046;DHT22;5063;50.878;4.742;2022-07-23T05:19:29;20.20;99.90
10046;DHT22;5063;50.878;4.742;2022-07-23T05:21:54;20.70;99.90
10046;DHT22;5063;50.878;4.742;2022-07-23T05:24:20;21.30;99.90
10046;DHT22;5063;50.878;4.742;2022-07-23T05:26:46;21.80;99.90
10046;DHT22;5063;50.878;4.742;2022-07-23T05:29:12;22.30;99.90
10046;DHT22;5063;50.878;4.742;2022-07-23T05:31:37;22.50;99.90
10046;DHT22;5063;50.878;4.742;2022-07-23T05:34:03;22.70;99.90
10046;DHT22;5063;50.878;4.742;2022-07-23T05:36:31;22.80;99.90
10046;DHT22;5063;50.878;4.742;2022-07-23T05:38:57;22.70;99.90
10046;DHT22;5063;50.878;4.742;2022-07-23T05:41:22;22.80;99.90
10046;DHT22;5063;50.878;4.742;2022-07-23T05:43:48;22.80;99.90
10046;DHT22;5063;50.878;4.742;2022-07-23T05:46:14;23.10;99.90
10046;DHT22;5063;50.878;4.742;2022-07-23T05:48:40;23.60;99.90
10046;DHT22;5063;50.878;4.742;2022-07-23T05:51:06;24.10;99.90
10046;DHT22;5063;50.878;4.742;2022-07-23T05:53:33;24.80;99.90
10046;DHT22;5063;50.878;4.742;2022-07-23T05:55:59;25.40;99.90
10046;DHT22;5063;50.878;4.742;2022-07-23T05:58:25;25.70;99.90
10046;DHT22;5063;50.878;4.742;2022-07-23T06:00:51;26.00;99.90
10046;DHT22;5063;50.878;4.742;2022-07-23T06:03:16;25.40;99.90
10046;DHT22;5063;50.878;4.742;2022-07-23T06:05:42;25.60;99.90
10046;DHT22;5063;50.878;4.742;2022-07-23T06:08:08;26.30;99.90
10046;DHT22;5063;50.878;4.742;2022-07-23T06:10:34;27.10;99.90
10046;DHT22;5063;50.878;4.742;2022-07-23T06:12:59;27.60;99.90
10046;DHT22;5063;50.878;4.742;2022-07-23T06:15:25;28.10;99.90
10046;DHT22;5063;50.878;4.742;2022-07-23T06:17:51;28.50;99.90
10046;DHT22;5063;50.878;4.742;2022-07-23T06:20:17;28.80;99.90
10046;DHT22;5063;50.878;4.742;2022-07-23T06:22:42;29.20;99.90
10046;DHT22;5063;50.878;4.742;2022-07-23T06:25:08;29.40;99.90
10046;DHT22;5063;50.878;4.742;2022-07-23T06:27:34;29.60;99.90
10046;DHT22;5063;50.878;4.742;2022-07-23T06:30:00;30.00;98.70
10046;DHT22;5063;50.878;4.742;2022-07-23T06:32:26;29.60;98.20
10046;DHT22;5063;50.878;4.742;2022-07-23T06:34:52;30.10;93.80
10046;DHT22;5063;50.878;4.742;2022-07-23T06:37:17;30.30;97.70
10046;DHT22;5063;50.878;4.742;2022-07-23T06:39:43;30.80;95.50
10046;DHT22;5063;50.878;4.742;2022-07-23T06:42:09;31.10;93.10
10046;DHT22;5063;50.878;4.742;2022-07-23T06:44:37;31.40;90.70
10046;DHT22;5063;50.878;4.742;2022-07-23T06:47:02;31.00;91.70
10046;DHT22;5063;50.878;4.742;2022-07-23T06:49:29;31.10;91.30
10046;DHT22;5063;50.878;4.742;2022-07-23T06:51:54;31.10;89.60
10046;DHT22;5063;50.878;4.742;2022-07-23T06:54:20;30.90;90.80
10046;DHT22;5063;50.878;4.742;2022-07-23T06:56:46;30.40;91.60
10046;DHT22;5063;50.878;4.742;2022-07-23T06:59:12;30.80;91.30
10046;DHT22;5063;50.878;4.742;2022-07-23T07:01:38;31.20;92.60
10046;DHT22;5063;50.878;4.742;2022-07-23T07:04:38;31.50;88.90
10046;DHT22;5063;50.878;4.742;2022-07-23T07:07:04;31.50;87.80
10046;DHT22;5063;50.878;4.742;2022-07-23T07:09:29;31.60;88.50
10046;DHT22;5063;50.878;4.742;2022-07-23T07:11:55;31.90;87.70
10046;DHT22;5063;50.878;4.742;2022-07-23T07:15:07;32.10;85.90
10046;DHT22;5063;50.878;4.742;2022-07-23T07:17:32;32.30;82.60
10046;DHT22;5063;50.878;4.742;2022-07-23T07:19:58;32.30;86.00
10046;DHT22;5063;50.878;4.742;2022-07-23T07:22:31;31.90;87.80
10046;DHT22;5063;50.878;4.742;2022-07-23T07:25:14;32.80;84.00
10046;DHT22;5063;50.878;4.742;2022-07-23T07:27:43;32.80;81.00
10046;DHT22;5063;50.878;4.742;2022-07-23T07:30:17;32.70;80.70
10046;DHT22;5063;50.878;4.742;2022-07-23T07:32:43;32.50;81.40
10046;DHT22;5063;50.878;4.742;2022-07-23T07:35:16;33.10;79.30
10046;DHT22;5063;50.878;4.742;2022-07-23T07:37:45;32.00;80.60
10046;DHT22;5063;50.878;4.742;2022-07-23T07:40:11;33.00;81.80
10046;DHT22;5063;50.878;4.742;2022-07-23T07:42:56;33.70;81.20
10046;DHT22;5063;50.878;4.742;2022-07-23T07:45:23;33.80;78.10
10046;DHT22;5063;50.878;4.742;2022-07-23T07:47:51;33.90;77.60
10046;DHT22;5063;50.878;4.742;2022-07-23T07:50:19;33.50;76.90
10046;DHT22;5063;50.878;4.742;2022-07-23T07:52:45;32.90;79.60
10046;DHT22;5063;50.878;4.742;2022-07-23T07:55:15;33.10;83.00
10046;DHT22;5063;50.878;4.742;2022-07-23T07:57:41;31.80;81.30
10046;DHT22;5063;50.878;4.742;2022-07-23T08:00:08;32.60;79.00
10046;DHT22;5063;50.878;4.742;2022-07-23T08:05:07;32.10;79.90
10046;DHT22;5063;50.878;4.742;2022-07-23T08:07:33;32.20;81.40
10046;DHT22;5063;50.878;4.742;2022-07-23T08:09:59;32.50;79.80
10046;DHT22;5063;50.878;4.742;2022-07-23T08:12:25;32.50;80.00
10046;DHT22;5063;50.878;4.742;2022-07-23T08:14:51;32.80;79.10
10046;DHT22;5063;50.878;4.742;2022-07-23T08:17:18;32.90;76.00
10046;DHT22;5063;50.878;4.742;2022-07-23T08:19:43;33.30;73.50
10046;DHT22;5063;50.878;4.742;2022-07-23T08:22:09;33.20;74.00
10046;DHT22;5063;50.878;4.742;2022-07-23T08:24:35;32.70;75.20
10046;DHT22;5063;50.878;4.742;2022-07-23T08:27:01;32.70;77.20
10046;DHT22;5063;50.878;4.742;2022-07-23T08:29:27;32.90;73.10
10046;DHT22;5063;50.878;4.742;2022-07-23T08:31:52;31.70;74.90
10046;DHT22;5063;50.878;4.742;2022-07-23T08:34:18;31.80;76.50
10046;DHT22;5063;50.878;4.742;2022-07-23T08:36:44;31.30;79.20
10046;DHT22;5063;50.878;4.742;2022-07-23T08:39:09;31.90;79.50
10046;DHT22;5063;50.878;4.742;2022-07-23T08:41:35;32.00;79.20
10046;DHT22;5063;50.878;4.742;2022-07-23T08:44:01;32.50;78.60
10046;DHT22;5063;50.878;4.742;2022-07-23T08:46:27;33.10;75.50
10046;DHT22;5063;50.878;4.742;2022-07-23T08:48:54;33.00;76.80
10046;DHT22;5063;50.878;4.742;2022-07-23T08:51:20;33.10;76.30
10046;DHT22;5063;50.878;4.742;2022-07-23T08:53:46;33.50;76.20
10046;DHT22;5063;50.878;4.742;2022-07-23T08:56:13;33.30;75.20
10046;DHT22;5063;50.878;4.742;2022-07-23T08:58:39;32.70;77.50
10046;DHT22;5063;50.878;4.742;2022-07-23T09:01:05;33.10;71.40
10046;DHT22;5063;50.878;4.742;2022-07-23T09:03:32;32.60;72.30
10046;DHT22;5063;50.878;4.742;2022-07-23T09:05:59;32.30;72.90
10046;DHT22;5063;50.878;4.742;2022-07-23T09:08:39;31.60;74.50
10046;DHT22;5063;50.878;4.742;2022-07-23T09:11:11;31.80;73.60
10046;DHT22;5063;50.878;4.742;2022-07-23T09:16:28;32.40;75.20
10046;DHT22;5063;50.878;4.742;2022-07-23T09:19:00;32.70;74.20
10046;DHT22;5063;50.878;4.742;2022-07-23T09:21:34;33.10;72.70
10046;DHT22;5063;50.878;4.742;2022-07-23T09:29:07;33.70;69.30
10046;DHT22;5063;50.878;4.742;2022-07-23T09:31:34;33.30;69.20
10046;DHT22;5063;50.878;4.742;2022-07-23T09:34:14;33.00;70.10
10046;DHT22;5063;50.878;4.742;2022-07-23T09:36:40;32.70;71.50
10046;DHT22;5063;50.878;4.742;2022-07-23T09:39:06;32.90;69.30
10046;DHT22;5063;50.878;4.742;2022-07-23T09:41:46;33.00;67.50
10046;DHT22;5063;50.878;4.742;2022-07-23T09:44:19;33.20;66.10
10046;DHT22;5063;50.878;4.742;2022-07-23T09:46:47;32.70;64.80
10046;DHT22;5063;50.878;4.742;2022-07-23T09:49:22;31.10;67.60
10046;DHT22;5063;50.878;4.742;2022-07-23T09:51:57;29.40;71.90
10046;DHT22;5063;50.878;4.742;2022-07-23T09:54:32;28.90;74.60
10046;DHT22;5063;50.878;4.742;2022-07-23T09:57:04;28.20;77.60
10046;DHT22;5063;50.878;4.742;2022-07-23T09:59:34;27.70;79.20
10046;DHT22;5063;50.878;4.742;2022-07-23T10:02:00;27.10;81.40
10046;DHT22;5063;50.878;4.742;2022-07-23T10:04:30;26.80;85.00
10046;DHT22;5063;50.878;4.742;2022-07-23T10:06:58;26.70;83.90
10046;DHT22;5063;50.878;4.742;2022-07-23T10:09:30;26.20;83.50
10046;DHT22;5063;50.878;4.742;2022-07-23T10:12:00;25.90;83.10
10046;DHT22;5063;50.878;4.742;2022-07-23T10:14:45;25.60;89.00
10046;DHT22;5063;50.878;4.742;2022-07-23T10:17:11;26.10;91.70
10046;DHT22;5063;50.878;4.742;2022-07-23T10:19:37;26.40;92.00
10046;DHT22;5063;50.878;4.742;2022-07-23T10:22:09;26.40;92.90
10046;DHT22;5063;50.878;4.742;2022-07-23T10:30:15;26.40;95.30
10046;DHT22;5063;50.878;4.742;2022-07-23T10:38:52;26.30;92.40
10046;DHT22;5063;50.878;4.742;2022-07-23T10:44:16;26.60;93.00
10046;DHT22;5063;50.878;4.742;2022-07-23T10:47:03;26.50;92.50
10046;DHT22;5063;50.878;4.742;2022-07-23T10:49:48;26.50;91.40
10046;DHT22;5063;50.878;4.742;2022-07-23T10:54:52;26.20;94.20
10046;DHT22;5063;50.878;4.742;2022-07-23T10:57:21;26.20;92.60
10046;DHT22;5063;50.878;4.742;2022-07-23T11:02:33;25.90;93.70
10046;DHT22;5063;50.878;4.742;2022-07-23T11:05:01;25.80;93.40
10046;DHT22;5063;50.878;4.742;2022-07-23T11:07:28;25.60;93.50
10046;DHT22;5063;50.878;4.742;2022-07-23T11:09:54;25.80;94.60
10046;DHT22;5063;50.878;4.742;2022-07-23T11:15:08;26.20;94.40
10046;DHT22;5063;50.878;4.742;2022-07-23T11:17:38;26.50;96.20
10046;DHT22;5063;50.878;4.742;2022-07-23T11:22:37;26.80;92.10
10046;DHT22;5063;50.878;4.742;2022-07-23T11:25:04;26.90;91.70
10046;DHT22;5063;50.878;4.742;2022-07-23T11:28:13;27.30;91.70
10046;DHT22;5063;50.878;4.742;2022-07-23T11:30:42;27.40;90.60
10046;DHT22;5063;50.878;4.742;2022-07-23T11:35:45;27.70;89.90
10046;DHT22;5063;50.878;4.742;2022-07-23T11:38:20;27.20;86.40
10046;DHT22;5063;50.878;4.742;2022-07-23T11:40:52;27.00;89.40
10046;DHT22;5063;50.878;4.742;2022-07-23T11:43:20;26.80;86.50
10046;DHT22;5063;50.878;4.742;2022-07-23T11:45:49;26.50;91.10
10046;DHT22;5063;50.878;4.742;2022-07-23T11:48:36;26.30;90.60
10046;DHT22;5063;50.878;4.742;2022-07-23T11:51:02;26.50;93.50
10046;DHT22;5063;50.878;4.742;2022-07-23T11:53:33;26.70;91.10
10046;DHT22;5063;50.878;4.742;2022-07-23T11:56:06;27.00;86.70
10046;DHT22;5063;50.878;4.742;2022-07-23T11:58:33;27.10;86.60
10046;DHT22;5063;50.878;4.742;2022-07-23T12:00:58;27.10;88.60
10046;DHT22;5063;50.878;4.742;2022-07-23T12:03:24;26.70;87.80
10046;DHT22;5063;50.878;4.742;2022-07-23T12:05:56;26.60;88.90
10046;DHT22;5063;50.878;4.742;2022-07-23T12:08:23;26.60;90.40
10046;DHT22;5063;50.878;4.742;2022-07-23T12:10:49;26.80;91.50
10046;DHT22;5063;50.878;4.742;2022-07-23T12:13:17;27.30;91.00
10046;DHT22;5063;50.878;4.742;2022-07-23T12:15:47;27.60;87.30
10046;DHT22;5063;50.878;4.742;2022-07-23T12:18:16;27.80;85.40
10046;DHT22;5063;50.878;4.742;2022-07-23T12:20:46;27.70;83.80
10046;DHT22;5063;50.878;4.742;2022-07-23T12:23:14;27.70;84.70
10046;DHT22;5063;50.878;4.742;2022-07-23T12:25:43;27.40;85.40
10046;DHT22;5063;50.878;4.742;2022-07-23T12:28:20;27.20;88.30
10046;DHT22;5063;50.878;4.742;2022-07-23T12:30:53;27.40;89.20
10046;DHT22;5063;50.878;4.742;2022-07-23T12:33:31;27.40;87.20
10046;DHT22;5063;50.878;4.742;2022-07-23T12:35:58;27.30;85.30
10046;DHT22;5063;50.878;4.742;2022-07-23T12:38:26;27.20;86.80
10046;DHT22;5063;50.878;4.742;2022-07-23T12:40:57;27.50;87.50
10046;DHT22;5063;50.878;4.742;2022-07-23T12:43:36;27.50;89.70
10046;DHT22;5063;50.878;4.742;2022-07-23T12:46:16;27.50;87.40
10046;DHT22;5063;50.878;4.742;2022-07-23T12:51:25;27.80;85.70
10046;DHT22;5063;50.878;4.742;2022-07-23T12:54:08;27.90;85.20
10046;DHT22;5063;50.878;4.742;2022-07-23T12:56:45;27.80;87.20
10046;DHT22;5063;50.878;4.742;2022-07-23T12:59:13;28.20;83.00
10046;DHT22;5063;50.878;4.742;2022-07-23T13:01:53;28.00;83.30
10046;DHT22;5063;50.878;4.742;2022-07-23T13:04:21;28.00;83.00
10046;DHT22;5063;50.878;4.742;2022-07-23T13:06:56;28.20;82.30
10046;DHT22;5063;50.878;4.742;2022-07-23T13:09:30;28.40;85.00
10046;DHT22;5063;50.878;4.742;2022-07-23T13:11:57;28.30;84.50
10046;DHT22;5063;50.878;4.742;2022-07-23T13:14:24;28.10;83.80
10046;DHT22;5063;50.878;4.742;2022-07-23T13:16:51;28.10;83.70
10046;DHT22;5063;50.878;4.742;2022-07-23T13:19:20;28.20;83.10
10046;DHT22;5063;50.878;4.742;2022-07-23T13:21:48;28.30;82.90
10046;DHT22;5063;50.878;4.742;2022-07-23T13:24:14;28.60;80.90
10046;DHT22;5063;50.878;4.742;2022-07-23T13:26:41;28.50;81.30
10046;DHT22;5063;50.878;4.742;2022-07-23T13:29:07;28.20;79.50
10046;DHT22;5063;50.878;4.742;2022-07-23T13:31:34;28.00;80.70
10046;DHT22;5063;50.878;4.742;2022-07-23T13:34:00;28.10;80.30
10046;DHT22;5063;50.878;4.742;2022-07-23T13:36:26;28.20;79.30
10046;DHT22;5063;50.878;4.742;2022-07-23T13:38:52;28.40;79.90
10046;DHT22;5063;50.878;4.742;2022-07-23T13:41:18;28.30;79.90
10046;DHT22;5063;50.878;4.742;2022-07-23T13:43:44;28.60;81.00
10046;DHT22;5063;50.878;4.742;2022-07-23T13:46:10;28.90;83.70
10046;DHT22;5063;50.878;4.742;2022-07-23T13:48:36;29.20;80.00
10046;DHT22;5063;50.878;4.742;2022-07-23T13:51:01;29.50;78.80
10046;DHT22;5063;50.878;4.742;2022-07-23T13:53:27;29.40;76.30
10046;DHT22;5063;50.878;4.742;2022-07-23T13:55:53;29.80;76.90
10046;DHT22;5063;50.878;4.742;2022-07-23T13:58:20;30.10;74.40
10046;DHT22;5063;50.878;4.742;2022-07-23T14:00:49;29.20;75.40
10046;DHT22;5063;50.878;4.742;2022-07-23T14:03:16;29.50;75.90
10046;DHT22;5063;50.878;4.742;2022-07-23T14:05:41;29.50;76.90
10046;DHT22;5063;50.878;4.742;2022-07-23T14:08:08;29.80;73.60
10046;DHT22;5063;50.878;4.742;2022-07-23T14:10:36;29.90;73.20
10046;DHT22;5063;50.878;4.742;2022-07-23T14:13:02;29.80;74.80
10046;DHT22;5063;50.878;4.742;2022-07-23T14:15:29;30.40;74.40
10046;DHT22;5063;50.878;4.742;2022-07-23T14:17:56;30.60;71.60
10046;DHT22;5063;50.878;4.742;2022-07-23T14:20:22;30.70;72.40
10046;DHT22;5063;50.878;4.742;2022-07-23T14:22:48;30.40;72.30
10046;DHT22;5063;50.878;4.742;2022-07-23T14:25:15;30.40;72.50
10046;DHT22;5063;50.878;4.742;2022-07-23T14:27:41;30.00;72.90
10046;DHT22;5063;50.878;4.742;2022-07-23T14:30:09;29.60;74.10
10046;DHT22;5063;50.878;4.742;2022-07-23T14:32:35;29.50;74.60
10046;DHT22;5063;50.878;4.742;2022-07-23T14:35:02;29.20;75.00
10046;DHT22;5063;50.878;4.742;2022-07-23T14:37:29;28.90;76.60
10046;DHT22;5063;50.878;4.742;2022-07-23T14:39:54;29.20;75.60
10046;DHT22;5063;50.878;4.742;2022-07-23T14:42:20;29.30;77.50
10046;DHT22;5063;50.878;4.742;2022-07-23T14:44:46;29.40;76.30
10046;DHT22;5063;50.878;4.742;2022-07-23T14:47:12;29.60;77.10
10046;DHT22;5063;50.878;4.742;2022-07-23T14:49:37;29.40;76.90
10046;DHT22;5063;50.878;4.742;2022-07-23T14:52:04;29.80;78.30
10046;DHT22;5063;50.878;4.742;2022-07-23T14:54:30;30.20;76.70
10046;DHT22;5063;50.878;4.742;2022-07-23T14:56:57;30.40;74.70
10046;DHT22;5063;50.878;4.742;2022-07-23T14:59:24;30.60;74.00
10046;DHT22;5063;50.878;4.742;2022-07-23T15:01:50;30.70;73.70
10046;DHT22;5063;50.878;4.742;2022-07-23T15:04:16;30.80;71.50
10046;DHT22;5063;50.878;4.742;2022-07-23T15:06:42;30.80;72.20
10046;DHT22;5063;50.878;4.742;2022-07-23T15:09:08;30.60;71.60
10046;DHT22;5063;50.878;4.742;2022-07-23T15:11:34;30.50;72.00
10046;DHT22;5063;50.878;4.742;2022-07-23T15:14:05;30.50;71.60
10046;DHT22;5063;50.878;4.742;2022-07-23T15:16:32;30.30;72.80
10046;DHT22;5063;50.878;4.742;2022-07-23T15:18:58;29.80;72.00
10046;DHT22;5063;50.878;4.742;2022-07-23T15:21:24;29.50;73.50
10046;DHT22;5063;50.878;4.742;2022-07-23T15:23:50;29.50;73.50
10046;DHT22;5063;50.878;4.742;2022-07-23T15:26:16;29.80;75.50
10046;DHT22;5063;50.878;4.742;2022-07-23T15:28:43;30.60;74.00
10046;DHT22;5063;50.878;4.742;2022-07-23T15:31:09;31.40;73.50
10046;DHT22;5063;50.878;4.742;2022-07-23T15:33:35;32.30;70.70
10046;DHT22;5063;50.878;4.742;2022-07-23T15:36:02;32.60;66.80
10046;DHT22;5063;50.878;4.742;2022-07-23T15:38:28;32.20;69.80
10046;DHT22;5063;50.878;4.742;2022-07-23T15:40:55;32.60;69.60
10046;DHT22;5063;50.878;4.742;2022-07-23T15:43:24;33.00;66.10
10046;DHT22;5063;50.878;4.742;2022-07-23T15:45:51;33.20;65.40
10046;DHT22;5063;50.878;4.742;2022-07-23T15:48:18;33.00;64.70
10046;DHT22;5063;50.878;4.742;2022-07-23T15:50:44;32.90;66.40
10046;DHT22;5063;50.878;4.742;2022-07-23T15:53:10;32.70;65.10
10046;DHT22;5063;50.878;4.742;2022-07-23T15:55:36;32.50;65.40
10046;DHT22;5063;50.878;4.742;2022-07-23T15:58:04;32.50;65.50
10046;DHT22;5063;50.878;4.742;2022-07-23T16:00:30;32.20;66.30
10046;DHT22;5063;50.878;4.742;2022-07-23T16:02:55;32.00;67.40
10046;DHT22;5063;50.878;4.742;2022-07-23T16:05:21;31.80;66.30
10046;DHT22;5063;50.878;4.742;2022-07-23T16:07:47;32.40;66.30
10046;DHT22;5063;50.878;4.742;2022-07-23T16:10:12;32.50;65.40
10046;DHT22;5063;50.878;4.742;2022-07-23T16:12:38;32.80;64.80
10046;DHT22;5063;50.878;4.742;2022-07-23T16:15:05;32.90;64.60
10046;DHT22;5063;50.878;4.742;2022-07-23T16:17:31;32.80;64.00
10046;DHT22;5063;50.878;4.742;2022-07-23T16:19:56;32.70;64.50
10046;DHT22;5063;50.878;4.742;2022-07-23T16:22:22;32.80;65.40
10046;DHT22;5063;50.878;4.742;2022-07-23T16:24:48;32.50;65.20
10046;DHT22;5063;50.878;4.742;2022-07-23T16:27:14;32.70;64.50
10046;DHT22;5063;50.878;4.742;2022-07-23T16:29:40;32.60;64.60